Time;durP1;ratioP1;P1;durP2;ratioP2;P2;SDS_P1;SDS_P2;PMS_P1;PMS_P2;Temp;Humidity;BMP_temperature;BMP_pressure;BME280_temperature;BME280_humidity;BME280_pressure;Samples;Min_cycle;Max_cycle;Signal;HPM_P1;HPM_P2
2022/05/21 00:00:11;;;;;;;7.00;2.93;;;11.70;99.90;;;;;;5064463;28;20240;-80
2022/05/21 00:02:38;;;;;;;5.03;2.67;;;11.70;99.90;;;;;;5061572;28;20246;-80
2022/05/21 00:05:06;;;;;;;5.80;2.80;;;11.60;99.90;;;;;;5072199;28;20310;-80
2022/05/21 00:07:33;;;;;;;5.37;2.43;;;11.60;99.90;;;;;;5080093;28;20312;-80
2022/05/21 00:10:01;;;;;;;4.17;2.10;;;11.60;99.90;;;;;;5081851;28;20235;-79
2022/05/21 00:12:28;;;;;;;4.07;1.90;;;11.50;99.90;;;;;;5077849;28;20250;-80
2022/05/21 00:14:57;;;;;;;3.60;2.00;;;11.60;99.90;;;;;;5083595;28;20224;-80
2022/05/21 00:17:24;;;;;;;6.33;2.57;;;11.50;99.90;;;;;;5081407;27;20213;-81
2022/05/21 00:19:51;;;;;;;8.27;2.30;;;11.60;99.90;;;;;;5089196;28;20823;-80
2022/05/21 00:22:17;;;;;;;6.20;2.20;;;11.50;99.90;;;;;;5079210;28;20220;-80
2022/05/21 00:24:44;;;;;;;4.73;2.10;;;11.50;99.90;;;;;;5075541;28;20257;-80
2022/05/21 00:27:12;;;;;;;4.53;2.10;;;11.50;99.90;;;;;;5062664;28;20318;-79
2022/05/21 00:29:38;;;;;;;3.83;1.80;;;11.40;99.90;;;;;;5061332;28;20223;-80
2022/05/21 00:32:07;;;;;;;4.80;2.20;;;11.40;99.90;;;;;;5062253;28;20231;-80
2022/05/21 00:34:34;;;;;;;5.30;2.30;;;11.40;99.90;;;;;;5079013;28;20321;-80
2022/05/21 00:37:01;;;;;;;3.30;1.80;;;11.40;99.90;;;;;;5083314;27;20221;-80
2022/05/21 00:39:29;;;;;;;7.20;2.30;;;11.30;99.90;;;;;;5082011;28;20232;-81
2022/05/21 00:41:56;;;;;;;5.83;2.27;;;11.30;99.90;;;;;;5088665;28;20234;-80
2022/05/21 00:44:23;;;;;;;5.97;2.77;;;11.20;99.90;;;;;;5080172;28;20226;-80
2022/05/21 00:46:50;;;;;;;4.30;2.33;;;11.30;99.90;;;;;;5076951;28;20702;-80
2022/05/21 00:49:22;;;;;;;5.70;2.40;;;11.20;99.90;;;;;;5078461;28;20211;-79
2022/05/21 00:51:53;;;;;;;3.67;2.60;;;11.10;99.90;;;;;;5077986;28;20245;-80
2022/05/21 00:54:23;;;;;;;5.53;3.00;;;11.10;99.90;;;;;;5073469;28;20231;-80
2022/05/21 00:56:55;;;;;;;7.83;2.90;;;11.10;99.90;;;;;;5072162;28;20224;-80
2022/05/21 01:02:08;;;;;;;8.37;3.40;;;11.00;99.90;;;;;;5079968;28;20319;-80
2022/05/21 01:04:37;;;;;;;4.93;3.03;;;10.90;99.90;;;;;;5071023;28;20718;-80
2022/05/21 01:07:06;;;;;;;6.07;3.17;;;10.90;99.90;;;;;;5080293;28;20238;-79
2022/05/21 01:09:34;;;;;;;8.37;2.90;;;10.90;99.90;;;;;;5079706;28;20601;-79
2022/05/21 01:12:02;;;;;;;6.10;3.30;;;10.90;99.90;;;;;;5079377;28;20233;-79
2022/05/21 01:14:29;;;;;;;5.73;2.93;;;10.90;99.90;;;;;;5081272;28;20302;-79
2022/05/21 01:16:56;;;;;;;8.53;3.00;;;10.90;99.90;;;;;;5079955;28;20295;-79
2022/05/21 01:19:23;;;;;;;7.23;3.03;;;10.90;99.90;;;;;;5080199;28;20220;-79
2022/05/21 01:21:51;;;;;;;7.67;2.80;;;10.90;99.90;;;;;;5068715;28;20298;-79
2022/05/21 01:24:19;;;;;;;7.20;3.10;;;10.80;99.90;;;;;;5080865;28;20232;-79
2022/05/21 01:26:46;;;;;;;4.97;2.80;;;10.70;99.90;;;;;;5080805;28;20228;-79
2022/05/21 01:29:22;;;;;;;6.13;2.73;;;10.70;99.90;;;;;;5081022;27;20227;-80
2022/05/21 01:31:51;;;;;;;7.93;3.00;;;10.70;99.90;;;;;;5078548;28;20241;-79
2022/05/21 01:34:18;;;;;;;4.83;3.00;;;10.60;99.90;;;;;;5071596;28;20338;-79
2022/05/21 01:36:46;;;;;;;5.57;2.63;;;10.60;99.90;;;;;;5078954;28;20636;-79
2022/05/21 01:39:13;;;;;;;6.10;2.83;;;10.60;99.90;;;;;;5078361;28;20225;-79
2022/05/21 01:41:43;;;;;;;8.60;3.20;;;10.50;99.90;;;;;;5062276;28;20228;-80
2022/05/21 01:46:55;;;;;;;9.40;2.90;;;10.50;99.90;;;;;;5052890;28;20242;-79
2022/05/21 01:49:21;;;;;;;5.00;2.87;;;10.40;99.90;;;;;;5054450;28;20237;-79
2022/05/21 01:51:48;;;;;;;4.37;2.70;;;10.30;99.90;;;;;;5062781;28;20660;-79
2022/05/21 01:54:15;;;;;;;5.23;3.20;;;10.30;99.90;;;;;;5075220;28;20652;-79
2022/05/21 01:56:44;;;;;;;4.70;3.30;;;10.30;99.90;;;;;;5076300;28;20211;-80
2022/05/21 01:59:11;;;;;;;7.07;3.30;;;10.30;99.90;;;;;;5076027;28;20246;-78
2022/05/21 02:01:38;;;;;;;5.93;2.87;;;10.30;99.90;;;;;;5074297;28;20747;-78
2022/05/21 02:04:04;;;;;;;4.53;2.73;;;10.30;99.90;;;;;;5072651;28;20226;-78
2022/05/21 02:06:32;;;;;;;4.67;2.77;;;10.20;99.90;;;;;;5073720;28;20813;-78
2022/05/21 02:08:59;;;;;;;7.97;3.10;;;10.20;99.90;;;;;;5075135;28;20227;-77
2022/05/21 02:11:26;;;;;;;5.90;2.97;;;10.20;99.90;;;;;;5079092;28;20242;-77
2022/05/21 02:13:55;;;;;;;7.00;2.60;;;10.20;99.90;;;;;;5076208;28;20231;-77
2022/05/21 02:16:22;;;;;;;7.63;2.60;;;10.20;99.90;;;;;;5073835;28;20253;-78
2022/05/21 02:18:49;;;;;;;7.57;3.07;;;10.20;99.90;;;;;;5070995;28;20229;-77
2022/05/21 02:21:17;;;;;;;7.67;3.07;;;10.20;99.90;;;;;;5075125;28;20215;-77
2022/05/21 02:23:44;;;;;;;9.83;2.70;;;10.20;99.90;;;;;;5080306;28;20326;-77
2022/05/21 02:26:11;;;;;;;7.67;2.80;;;10.20;99.90;;;;;;5079077;28;20332;-78
2022/05/21 02:28:38;;;;;;;6.77;3.03;;;10.30;99.90;;;;;;5083377;28;20227;-77
2022/05/21 02:31:06;;;;;;;5.10;2.83;;;10.30;99.90;;;;;;5078015;28;20223;-77
2022/05/21 02:33:33;;;;;;;7.30;3.40;;;10.40;99.90;;;;;;5077721;27;20227;-78
2022/05/21 02:35:59;;;;;;;6.23;3.40;;;10.40;99.90;;;;;;5084856;28;20225;-78
2022/05/21 02:41:12;;;;;;;5.37;3.20;;;10.50;99.90;;;;;;5052804;28;20234;-77
2022/05/21 02:43:39;;;;;;;3.97;3.00;;;10.60;99.90;;;;;;5052864;28;20233;-77
2022/05/21 02:46:07;;;;;;;5.87;3.30;;;10.70;99.90;;;;;;5058175;28;20229;-77
2022/05/21 02:48:34;;;;;;;7.90;3.80;;;10.70;99.90;;;;;;5072383;28;20228;-77
2022/05/21 02:51:01;;;;;;;5.47;3.30;;;10.80;99.90;;;;;;5058869;28;20828;-77
2022/05/21 02:53:28;;;;;;;6.27;3.20;;;10.80;99.90;;;;;;5056105;28;20235;-77
2022/05/21 02:55:57;;;;;;;6.23;3.10;;;10.80;99.90;;;;;;5061179;28;20225;-77
2022/05/21 02:58:24;;;;;;;4.90;3.00;;;10.90;99.90;;;;;;5055936;28;20369;-77
2022/05/21 03:00:52;;;;;;;4.60;3.17;;;10.90;99.90;;;;;;5061667;28;20225;-77
2022/05/21 03:03:20;;;;;;;5.13;3.13;;;11.00;99.90;;;;;;5054927;28;20244;-78
2022/05/21 03:05:46;;;;;;;6.27;3.13;;;11.00;99.90;;;;;;5059830;28;20228;-78
2022/05/21 03:10:57;;;;;;;4.63;2.97;;;11.10;99.90;;;;;;5053992;28;20226;-78
2022/05/21 03:13:26;;;;;;;5.07;2.83;;;11.10;99.90;;;;;;5055161;28;20233;-78
2022/05/21 03:15:53;;;;;;;4.43;2.63;;;11.10;99.90;;;;;;5051733;28;20222;-79
2022/05/21 03:18:21;;;;;;;5.30;3.17;;;11.10;99.90;;;;;;5060516;28;20308;-77
2022/05/21 03:20:48;;;;;;;6.40;3.40;;;11.10;99.90;;;;;;5056638;28;20229;-78
2022/05/21 03:23:15;;;;;;;5.13;3.00;;;11.20;99.90;;;;;;5051492;28;20330;-77
2022/05/21 03:25:42;;;;;;;7.10;3.57;;;11.20;99.90;;;;;;5054119;28;20568;-77
2022/05/21 03:28:14;;;;;;;4.33;2.97;;;11.20;99.90;;;;;;5053258;28;20222;-77
2022/05/21 03:30:41;;;;;;;5.63;3.13;;;11.20;99.90;;;;;;5054574;28;20725;-77
2022/05/21 03:33:08;;;;;;;4.30;2.97;;;11.20;99.90;;;;;;5052783;28;20219;-77
2022/05/21 03:35:36;;;;;;;4.70;3.33;;;11.30;99.90;;;;;;5056503;28;20234;-78
2022/05/21 03:38:04;;;;;;;5.63;3.20;;;11.30;99.90;;;;;;5051769;28;20231;-78
2022/05/21 03:40:32;;;;;;;3.43;3.13;;;11.30;99.90;;;;;;5071303;27;20299;-77
2022/05/21 03:43:00;;;;;;;4.13;3.00;;;11.30;99.90;;;;;;5077120;28;20259;-77
2022/05/21 03:45:28;;;;;;;6.43;2.83;;;11.30;99.90;;;;;;5078684;28;20237;-77
2022/05/21 03:47:55;;;;;;;4.20;2.90;;;11.20;99.90;;;;;;5081149;28;20867;-77
2022/05/21 03:50:25;;;;;;;3.43;2.40;;;11.20;99.90;;;;;;5074779;28;20288;-77
2022/05/21 03:52:53;;;;;;;3.60;2.50;;;11.20;99.90;;;;;;5077085;28;20338;-77
2022/05/21 03:55:21;;;;;;;5.90;3.00;;;11.20;99.90;;;;;;5073658;27;20221;-78
2022/05/21 03:57:48;;;;;;;4.63;2.80;;;11.20;99.90;;;;;;5066077;27;20272;-77
2022/05/21 04:00:18;;;;;;;4.13;2.83;;;11.20;99.90;;;;;;5071717;28;20332;-78
2022/05/21 04:02:45;;;;;;;3.90;2.77;;;11.20;99.90;;;;;;5072840;28;20229;-77
2022/05/21 04:05:13;;;;;;;2.77;2.37;;;11.20;99.90;;;;;;5076752;28;20229;-77
2022/05/21 04:07:40;;;;;;;4.43;2.80;;;11.20;99.90;;;;;;5075801;28;20637;-78
2022/05/21 04:10:11;;;;;;;4.33;3.07;;;11.20;99.90;;;;;;5073376;28;20305;-77
2022/05/21 04:12:38;;;;;;;7.20;3.10;;;11.20;99.90;;;;;;5075834;28;20343;-77
2022/05/21 04:15:06;;;;;;;4.83;2.90;;;11.20;99.90;;;;;;5074808;28;20336;-77
2022/05/21 04:17:33;;;;;;;4.63;2.70;;;11.20;99.90;;;;;;5071052;28;20230;-77
2022/05/21 04:19:59;;;;;;;8.53;3.17;;;11.30;99.90;;;;;;5074107;28;20353;-77
2022/05/21 04:22:26;;;;;;;5.00;3.20;;;11.20;99.90;;;;;;5070220;28;20227;-77
2022/05/21 04:24:53;;;;;;;6.27;3.43;;;11.20;99.90;;;;;;5076958;28;20786;-76
2022/05/21 04:27:21;;;;;;;5.57;3.70;;;11.20;99.90;;;;;;5074509;28;20231;-77
2022/05/21 04:29:48;;;;;;;6.90;4.10;;;11.20;99.90;;;;;;5074600;28;20223;-77
2022/05/21 04:32:15;;;;;;;5.50;4.17;;;11.20;99.90;;;;;;5075379;28;20284;-77
2022/05/21 04:34:42;;;;;;;6.47;4.00;;;11.20;99.90;;;;;;5073298;28;20219;-77
2022/05/21 04:37:09;;;;;;;5.40;4.03;;;11.30;99.90;;;;;;5076433;27;20227;-77
2022/05/21 04:39:36;;;;;;;11.23;4.80;;;11.30;99.90;;;;;;5075773;27;20629;-77
2022/05/21 04:42:04;;;;;;;7.90;4.80;;;11.30;99.90;;;;;;5073354;28;20217;-77
2022/05/21 04:44:34;;;;;;;7.00;4.80;;;11.30;99.90;;;;;;5076911;28;20275;-77
2022/05/21 04:47:02;;;;;;;8.33;5.97;;;11.30;99.90;;;;;;5071841;28;20222;-78
2022/05/21 04:49:29;;;;;;;9.43;6.53;;;11.30;99.90;;;;;;5072537;28;20282;-77
2022/05/21 04:51:57;;;;;;;11.03;6.60;;;11.40;99.90;;;;;;5076201;28;20240;-78
2022/05/21 04:54:23;;;;;;;9.93;6.87;;;11.40;99.90;;;;;;5075008;28;20225;-77
2022/05/21 04:56:50;;;;;;;9.13;6.50;;;11.40;99.90;;;;;;5075315;28;20225;-77
2022/05/21 04:59:17;;;;;;;10.97;6.63;;;11.40;99.90;;;;;;5073162;28;20222;-77
2022/05/21 05:01:45;;;;;;;15.23;8.40;;;11.40;99.90;;;;;;5051199;28;21606;-77
2022/05/21 05:04:12;;;;;;;10.07;6.70;;;11.50;99.90;;;;;;5053233;28;20568;-77
2022/05/21 05:06:39;;;;;;;10.37;8.13;;;11.50;99.90;;;;;;5053799;28;20227;-77
2022/05/21 05:09:07;;;;;;;10.20;9.20;;;11.50;99.90;;;;;;5055831;28;20229;-77
2022/05/21 05:11:35;;;;;;;16.87;11.60;;;11.50;99.90;;;;;;5051314;28;20712;-77
2022/05/21 05:14:02;;;;;;;15.80;11.87;;;11.60;99.90;;;;;;5058194;28;20242;-77
2022/05/21 05:16:29;;;;;;;14.70;12.33;;;11.60;99.90;;;;;;5050206;28;20230;-77
2022/05/21 05:18:57;;;;;;;16.00;13.57;;;11.60;99.90;;;;;;5054725;28;20226;-77
2022/05/21 05:21:24;;;;;;;15.83;12.23;;;11.60;99.90;;;;;;5054051;28;20254;-77
2022/05/21 05:23:51;;;;;;;13.50;12.10;;;11.70;99.90;;;;;;5053077;28;20230;-77
2022/05/21 05:26:19;;;;;;;14.03;12.53;;;11.60;99.90;;;;;;5054543;28;20317;-77
2022/05/21 05:28:46;;;;;;;16.10;13.20;;;11.70;99.90;;;;;;5051221;28;20280;-77
2022/05/21 05:31:13;;;;;;;16.30;13.17;;;11.70;99.90;;;;;;5051448;28;20315;-77
2022/05/21 05:33:39;;;;;;;16.10;13.00;;;11.70;99.90;;;;;;5056224;28;20227;-77
2022/05/21 05:36:08;;;;;;;15.60;12.93;;;11.70;99.90;;;;;;5049890;28;20226;-77
2022/05/21 05:38:36;;;;;;;14.83;13.20;;;11.70;99.90;;;;;;5053385;28;20243;-77
2022/05/21 05:41:06;;;;;;;16.73;13.30;;;11.70;99.90;;;;;;5056185;28;20309;-77
2022/05/21 05:43:33;;;;;;;15.60;12.93;;;11.80;99.90;;;;;;5061879;27;20216;-77
2022/05/21 05:45:59;;;;;;;15.70;13.03;;;11.70;99.90;;;;;;5051412;28;20769;-77
2022/05/21 05:48:26;;;;;;;19.43;14.57;;;11.80;99.90;;;;;;5052804;28;20815;-76
2022/05/21 05:50:54;;;;;;;18.93;14.20;;;11.80;99.90;;;;;;5053975;28;20232;-77
2022/05/21 05:53:22;;;;;;;20.60;14.90;;;11.80;99.90;;;;;;5053406;28;20230;-77
2022/05/21 05:55:49;;;;;;;20.23;13.80;;;11.80;99.90;;;;;;5056383;28;20228;-77
2022/05/21 06:01:00;;;;;;;19.77;14.53;;;11.80;99.90;;;;;;5054572;28;20230;-77
2022/05/21 06:03:26;;;;;;;19.47;14.00;;;11.90;99.90;;;;;;5061265;28;20234;-77
2022/05/21 06:05:53;;;;;;;21.00;14.37;;;11.90;99.90;;;;;;5061612;28;20222;-77
2022/05/21 06:08:22;;;;;;;16.47;13.77;;;11.90;99.90;;;;;;5060485;28;20227;-77
2022/05/21 06:10:49;;;;;;;19.33;13.23;;;11.90;99.90;;;;;;5058869;28;20223;-77
2022/05/21 06:13:17;;;;;;;18.63;14.63;;;11.90;99.90;;;;;;5060616;28;20226;-78
2022/05/21 06:15:44;;;;;;;17.17;14.77;;;11.90;99.90;;;;;;5058541;28;20223;-78
2022/05/21 06:18:13;;;;;;;18.90;14.67;;;12.00;99.90;;;;;;5055518;28;20299;-78
2022/05/21 06:20:40;;;;;;;19.17;14.33;;;12.00;99.90;;;;;;5060285;28;20226;-79
2022/05/21 06:23:07;;;;;;;17.23;13.63;;;12.00;99.90;;;;;;5059125;28;20227;-79
2022/05/21 06:25:35;;;;;;;18.93;14.00;;;12.00;99.90;;;;;;5062577;28;20235;-79
2022/05/21 06:28:03;;;;;;;17.13;13.47;;;11.90;99.90;;;;;;5056560;28;20226;-78
2022/05/21 06:30:32;;;;;;;17.43;13.43;;;11.90;99.90;;;;;;5062505;28;20235;-78
2022/05/21 06:33:00;;;;;;;17.00;13.93;;;11.90;99.90;;;;;;5070234;28;20264;-77
2022/05/21 06:35:33;;;;;;;15.93;13.47;;;11.80;99.90;;;;;;5076993;28;20219;-78
2022/05/21 06:37:59;;;;;;;18.87;15.40;;;11.80;99.90;;;;;;5079737;28;20227;-79
2022/05/21 06:40:26;;;;;;;18.80;14.47;;;11.80;99.90;;;;;;5082170;28;20241;-78
2022/05/21 06:42:54;;;;;;;20.67;16.37;;;11.90;99.90;;;;;;5077076;28;20247;-78
2022/05/21 06:45:21;;;;;;;21.03;16.63;;;11.80;99.90;;;;;;5058503;28;20650;-78
2022/05/21 06:47:48;;;;;;;19.00;16.97;;;11.90;99.90;;;;;;5057695;28;20221;-78
2022/05/21 06:50:14;;;;;;;22.50;17.00;;;11.90;99.90;;;;;;5075995;28;20765;-78
2022/05/21 06:52:41;;;;;;;20.23;17.57;;;12.00;99.90;;;;;;5080586;28;20223;-79
2022/05/21 06:55:09;;;;;;;20.30;17.87;;;12.00;99.90;;;;;;5092689;27;20241;-78
2022/05/21 06:57:36;;;;;;;22.87;18.03;;;12.10;99.90;;;;;;5080355;28;20224;-78
2022/05/21 07:00:05;;;;;;;20.77;18.07;;;12.10;99.90;;;;;;5083171;28;20241;-78
2022/05/21 07:02:32;;;;;;;21.70;17.93;;;12.20;99.90;;;;;;5054199;28;20255;-78
2022/05/21 07:07:46;;;;;;;22.10;18.00;;;12.30;99.90;;;;;;5057619;28;20239;-78
2022/05/21 07:10:18;;;;;;;23.13;17.50;;;12.40;99.90;;;;;;5054010;28;20237;-78
2022/05/21 07:12:46;;;;;;;21.97;17.47;;;12.50;99.90;;;;;;5057630;28;20902;-78
2022/05/21 07:15:16;;;;;;;23.00;17.00;;;12.60;99.90;;;;;;5050446;28;20226;-78
2022/05/21 07:17:43;;;;;;;19.83;16.53;;;12.70;99.90;;;;;;5053107;28;20277;-78
2022/05/21 07:20:14;;;;;;;23.67;17.57;;;12.80;99.90;;;;;;5059096;28;20308;-78
2022/05/21 07:22:43;;;;;;;20.57;16.73;;;12.80;99.90;;;;;;5072272;28;20231;-78
2022/05/21 07:25:12;;;;;;;20.60;15.70;;;12.90;99.90;;;;;;5052786;28;20711;-81
2022/05/21 07:27:39;;;;;;;21.10;16.00;;;13.00;99.90;;;;;;5075977;28;20229;-81
2022/05/21 07:30:07;;;;;;;18.57;15.33;;;13.10;99.90;;;;;;5063105;28;20250;-81
2022/05/21 07:32:35;;;;;;;18.37;15.17;;;13.10;99.90;;;;;;5061126;28;20234;-80
2022/05/21 07:35:05;;;;;;;22.17;15.57;;;13.20;99.90;;;;;;5060805;28;20686;-80
2022/05/21 07:37:32;;;;;;;21.03;15.03;;;13.30;99.90;;;;;;5060395;28;20801;-82
2022/05/21 07:39:59;;;;;;;18.83;14.73;;;13.40;99.90;;;;;;5058053;28;20230;-80
2022/05/21 07:42:27;;;;;;;18.47;14.17;;;13.50;99.90;;;;;;5061789;28;20238;-80
2022/05/21 07:44:54;;;;;;;17.87;14.20;;;13.60;99.90;;;;;;5060113;28;20242;-80
2022/05/21 07:47:24;;;;;;;20.70;14.47;;;13.80;99.90;;;;;;5057666;28;20228;-80
2022/05/21 07:49:56;;;;;;;19.73;12.90;;;13.90;99.90;;;;;;5060405;28;20305;-80
2022/05/21 07:52:23;;;;;;;18.37;12.90;;;13.90;99.90;;;;;;5062461;28;20298;-79
2022/05/21 07:54:49;;;;;;;19.87;13.57;;;14.00;99.90;;;;;;5055790;28;20228;-81
2022/05/21 07:57:16;;;;;;;18.53;13.30;;;14.10;99.90;;;;;;5059520;28;20701;-83
2022/05/21 07:59:43;;;;;;;18.20;12.47;;;14.30;99.90;;;;;;5065020;28;20226;-78
2022/05/21 08:02:13;;;;;;;17.53;11.93;;;14.40;99.90;;;;;;5054127;28;20770;-80
2022/05/21 08:04:42;;;;;;;14.27;10.90;;;14.60;99.90;;;;;;5058870;28;20220;-79
2022/05/21 08:07:10;;;;;;;16.20;10.80;;;14.70;99.90;;;;;;5052837;28;20230;-79
2022/05/21 08:09:38;;;;;;;13.80;10.77;;;14.90;99.90;;;;;;5065503;27;20258;-78
2022/05/21 08:12:05;;;;;;;17.33;10.43;;;14.90;99.90;;;;;;5061584;28;20227;-78
2022/05/21 08:14:32;;;;;;;14.63;10.97;;;15.00;99.90;;;;;;5078720;28;20237;-78
2022/05/21 08:16:59;;;;;;;14.57;9.13;;;15.20;99.90;;;;;;5074659;28;20274;-78
2022/05/21 08:19:26;;;;;;;12.70;7.70;;;15.20;99.90;;;;;;5074337;28;20244;-78
2022/05/21 08:21:53;;;;;;;14.53;7.57;;;15.30;99.90;;;;;;5073711;28;20996;-79
2022/05/21 08:27:05;;;;;;;13.33;8.47;;;15.30;99.90;;;;;;5077216;28;20693;-80
2022/05/21 08:29:34;;;;;;;13.73;8.10;;;15.20;99.90;;;;;;5076161;28;20285;-80
2022/05/21 08:32:04;;;;;;;9.70;7.87;;;15.00;99.90;;;;;;5079835;28;20233;-80
2022/05/21 08:34:30;;;;;;;11.03;7.97;;;14.80;99.90;;;;;;5068339;27;20392;-80
2022/05/21 08:36:58;;;;;;;13.17;8.33;;;14.70;99.90;;;;;;5075008;28;20238;-80
2022/05/21 08:39:29;;;;;;;11.47;7.30;;;14.50;99.90;;;;;;5078296;28;20412;-80
2022/05/21 08:42:00;;;;;;;8.83;5.83;;;14.30;99.90;;;;;;5077550;28;20225;-80
2022/05/21 08:44:39;;;;;;;9.80;6.80;;;14.10;99.90;;;;;;5080141;28;20266;-81
2022/05/21 08:47:19;;;;;;;9.73;7.10;;;13.90;99.90;;;;;;5079522;28;20430;-81
2022/05/21 08:49:54;;;;;;;10.40;6.30;;;14.00;99.90;;;;;;5074111;28;20239;-84
2022/05/21 08:52:26;;;;;;;8.53;5.10;;;14.20;99.90;;;;;;5078917;28;20229;-82
2022/05/21 08:54:56;;;;;;;6.93;5.10;;;14.50;99.90;;;;;;5078908;28;20229;-82
2022/05/21 08:57:28;;;;;;;6.93;3.80;;;14.80;99.90;;;;;;5073762;28;20228;-83
2022/05/21 09:00:00;;;;;;;8.80;4.17;;;15.10;99.90;;;;;;5076003;28;20233;-82
2022/05/21 09:02:36;;;;;;;6.60;2.80;;;15.40;99.90;;;;;;5074119;28;20306;-78
2022/05/21 09:05:04;;;;;;;6.53;2.60;;;15.90;99.90;;;;;;5081096;28;20309;-79
2022/05/21 09:07:45;;;;;;;5.37;2.50;;;16.20;99.90;;;;;;5080502;28;20222;-79
2022/05/21 09:10:33;;;;;;;8.63;2.10;;;16.50;99.90;;;;;;5073834;28;20322;-79
2022/05/21 09:13:10;;;;;;;3.57;1.73;;;16.70;99.90;;;;;;5074522;28;20281;-79
2022/05/21 09:18:23;;;;;;;2.67;1.53;;;16.70;99.90;;;;;;5053963;28;21105;-79
2022/05/21 09:20:57;;;;;;;4.40;1.60;;;16.50;99.90;;;;;;5051529;28;20311;-78
2022/05/21 09:23:24;;;;;;;5.27;1.40;;;16.30;99.90;;;;;;5052307;28;20277;-77
2022/05/21 09:26:06;;;;;;;4.20;1.60;;;16.20;99.90;;;;;;5052753;28;20220;-78
2022/05/21 09:28:37;;;;;;;7.80;2.20;;;16.10;99.90;;;;;;5054763;28;20932;-77
2022/05/21 09:31:06;;;;;;;3.63;1.97;;;16.10;99.90;;;;;;5055478;28;20336;-77
2022/05/21 09:33:35;;;;;;;6.10;1.93;;;16.10;99.90;;;;;;5053741;28;20594;-77
2022/05/21 09:36:02;;;;;;;6.10;1.90;;;16.10;99.90;;;;;;5056016;28;20241;-74
2022/05/21 09:38:31;;;;;;;5.43;1.93;;;16.10;99.90;;;;;;5060663;28;20308;-79
2022/05/21 09:41:12;;;;;;;8.40;2.03;;;16.20;99.90;;;;;;5049229;28;20230;-79
2022/05/21 09:46:27;;;;;;;5.23;1.70;;;16.20;99.90;;;;;;5062524;28;20265;-78
2022/05/21 09:48:56;;;;;;;6.97;1.80;;;16.20;99.90;;;;;;5060761;28;20314;-78
2022/05/21 09:51:26;;;;;;;5.47;1.60;;;16.10;99.90;;;;;;5057018;28;20288;-78
2022/05/21 09:53:57;;;;;;;5.43;2.40;;;15.90;99.90;;;;;;5055740;28;20265;-78
2022/05/21 09:56:28;;;;;;;4.93;1.87;;;15.90;99.90;;;;;;5052296;28;20698;-78
2022/05/21 09:59:11;;;;;;;4.00;1.43;;;15.90;99.90;;;;;;5051411;28;20223;-78
2022/05/21 10:01:42;;;;;;;4.00;1.50;;;15.90;99.90;;;;;;5061803;28;20233;-78
2022/05/21 10:04:18;;;;;;;5.00;1.40;;;16.10;99.90;;;;;;5054630;28;20754;-78
2022/05/21 10:06:50;;;;;;;7.00;1.53;;;16.20;99.90;;;;;;5054152;28;20278;-77
2022/05/21 10:12:13;;;;;;;4.00;1.50;;;16.30;99.90;;;;;;5056257;28;20314;-78
2022/05/21 10:14:44;;;;;;;4.77;1.50;;;16.50;99.90;;;;;;5053620;28;20332;-79
2022/05/21 10:17:18;;;;;;;4.37;1.60;;;16.70;99.90;;;;;;5057968;28;20292;-79
2022/05/21 10:19:54;;;;;;;4.57;1.50;;;16.90;99.90;;;;;;5057513;28;20219;-79
2022/05/21 10:22:36;;;;;;;3.90;1.20;;;17.20;99.90;;;;;;5057785;28;20250;-78
2022/05/21 10:25:09;;;;;;;2.15;1.20;;;17.60;99.90;;;;;;5057034;28;20243;-78
2022/05/21 10:28:14;;;;;;;3.92;1.40;;;17.80;98.70;;;;;;5050083;28;20382;-79
2022/05/21 10:30:58;;;;;;;4.80;1.40;;;18.00;96.70;;;;;;5058469;28;20219;-78
2022/05/21 10:33:39;;;;;;;3.77;1.50;;;18.00;97.10;;;;;;5055663;28;20292;-78
2022/05/21 10:36:20;;;;;;;3.57;1.17;;;17.80;96.30;;;;;;5055143;28;20260;-79
2022/05/21 10:39:16;;;;;;;5.03;1.37;;;17.60;96.90;;;;;;5053958;28;20226;-78
2022/05/21 10:42:00;;;;;;;3.87;1.43;;;17.40;97.00;;;;;;5053629;28;20231;-79
2022/05/21 10:44:43;;;;;;;4.00;1.43;;;17.30;97.80;;;;;;5077011;28;20703;-79
2022/05/21 10:47:22;;;;;;;6.35;1.60;;;17.40;97.60;;;;;;5070796;27;20743;-79
2022/05/21 10:50:25;;;;;;;7.35;1.60;;;17.60;97.20;;;;;;5056516;28;20306;-78
2022/05/21 10:53:22;;;;;;;7.13;1.58;;;17.90;96.30;;;;;;5054067;28;20870;-79
2022/05/21 10:56:00;;;;;;;4.50;1.20;;;18.10;95.80;;;;;;5000754;28;20273;-79
2022/05/21 10:58:42;;;;;;;4.38;1.30;;;18.30;95.60;;;;;;5066336;28;20221;-78
2022/05/21 11:01:15;;;;;;;4.72;1.45;;;18.60;95.10;;;;;;5080508;28;20250;-79
2022/05/21 11:03:59;;;;;;;6.05;1.60;;;19.00;94.80;;;;;;5072726;27;20658;-78
2022/05/21 11:07:18;;;;;;;8.60;1.77;;;19.40;93.70;;;;;;5057642;28;20375;-78
2022/05/21 11:09:54;;;;;;;5.25;1.42;;;19.90;92.30;;;;;;5065274;28;20231;-78
2022/05/21 11:12:26;;;;;;;5.25;1.20;;;20.30;92.30;;;;;;5054565;28;20322;-79
2022/05/21 11:14:57;;;;;;;5.93;1.45;;;20.60;91.50;;;;;;5061114;28;20898;-79
2022/05/21 11:17:33;;;;;;;5.15;1.75;;;20.90;90.90;;;;;;5053744;28;20249;-79
2022/05/21 11:20:04;;;;;;;5.88;1.40;;;21.10;89.40;;;;;;5053489;28;21052;-79
2022/05/21 11:22:38;;;;;;;7.47;1.55;;;21.20;89.40;;;;;;5054729;28;20231;-79
2022/05/21 11:25:14;;;;;;;3.75;1.10;;;21.30;86.00;;;;;;5056857;28;20787;-79
2022/05/21 11:27:49;;;;;;;4.13;1.33;;;21.30;88.00;;;;;;5056422;28;20318;-78
2022/05/21 11:30:19;;;;;;;7.25;1.75;;;21.20;85.30;;;;;;5068170;28;20892;-79
2022/05/21 11:38:29;;;;;;;3.35;1.40;;;21.10;84.80;;;;;;5053348;28;20266;-78
2022/05/21 11:44:55;;;;;;;4.85;1.33;;;21.10;83.50;;;;;;5051118;28;20829;-78
2022/05/21 11:46:47;;;;;;;4.13;1.40;;;21.00;83.70;;;;;;5076868;28;20227;-79
2022/05/21 11:49:34;;;;;;;6.65;1.70;;;20.80;84.20;;;;;;5076098;28;20377;-79
2022/05/21 11:52:39;;;;;;;4.60;1.42;;;20.60;83.20;;;;;;5072433;28;20383;-78
2022/05/21 11:55:21;;;;;;;6.10;1.25;;;20.40;83.00;;;;;;5074793;28;20896;-79
2022/05/21 11:57:50;;;;;;;4.78;1.10;;;20.20;82.50;;;;;;5078717;28;20230;-79
2022/05/21 12:00:43;;;;;;;5.70;1.30;;;19.90;81.70;;;;;;5077184;28;20231;-78
2022/05/21 12:03:16;;;;;;;6.18;1.45;;;19.70;82.20;;;;;;5076088;28;20322;-78
2022/05/21 12:06:11;;;;;;;6.32;1.70;;;19.50;82.70;;;;;;5073243;28;20226;-79
2022/05/21 12:08:48;;;;;;;3.78;1.40;;;19.50;83.40;;;;;;5066441;28;20226;-78
2022/05/21 12:11:39;;;;;;;5.38;1.30;;;19.60;83.80;;;;;;5057698;28;20215;-79
2022/05/21 12:14:14;;;;;;;2.63;1.10;;;19.70;84.60;;;;;;5055228;28;20227;-79
2022/05/21 12:16:51;;;;;;;5.10;1.73;;;19.80;84.40;;;;;;5058469;28;20219;-79
2022/05/21 12:19:54;;;;;;;6.60;1.55;;;19.80;83.80;;;;;;5053087;28;20228;-78
2022/05/21 12:22:35;;;;;;;5.75;1.42;;;19.70;84.70;;;;;;5048280;28;20862;-79
2022/05/21 12:25:02;;;;;;;4.90;1.50;;;19.60;84.60;;;;;;5054003;28;20235;-79
2022/05/21 12:27:30;;;;;;;11.85;1.83;;;19.50;85.20;;;;;;5067250;28;21031;-79
2022/05/21 12:30:00;;;;;;;4.80;1.35;;;19.40;85.00;;;;;;5086503;28;20230;-79
2022/05/21 12:32:33;;;;;;;3.25;1.35;;;19.30;84.40;;;;;;5073856;28;20871;-80
2022/05/21 12:35:25;;;;;;;4.85;1.48;;;19.20;84.80;;;;;;5073685;28;20250;-79
2022/05/21 12:37:58;;;;;;;4.05;1.40;;;19.20;85.10;;;;;;5078343;28;20226;-79
2022/05/21 12:40:33;;;;;;;5.95;1.38;;;19.30;84.40;;;;;;5081220;28;20233;-79
2022/05/21 12:43:08;;;;;;;4.35;0.93;;;19.40;82.80;;;;;;5073917;28;20450;-80
2022/05/21 12:45:37;;;;;;;5.25;0.93;;;19.40;81.60;;;;;;5075640;28;20230;-80
2022/05/21 12:48:10;;;;;;;3.50;0.95;;;19.40;81.80;;;;;;5073778;28;20295;-79
2022/05/21 12:50:47;;;;;;;3.30;1.05;;;19.50;82.60;;;;;;5076890;28;20331;-80
2022/05/21 12:53:17;;;;;;;4.47;0.88;;;19.60;81.90;;;;;;5075001;28;20242;-79
2022/05/21 12:55:44;;;;;;;2.17;1.08;;;19.80;80.90;;;;;;5080412;28;20218;-80
2022/05/21 12:58:20;;;;;;;4.43;1.20;;;20.00;80.40;;;;;;5078478;28;20272;-79
2022/05/21 13:00:51;;;;;;;4.57;1.52;;;20.30;78.40;;;;;;5078723;28;20746;-80
2022/05/21 13:03:19;;;;;;;4.07;1.00;;;20.50;79.10;;;;;;5073757;28;20233;-80
2022/05/21 13:05:51;;;;;;;4.65;1.63;;;20.60;77.90;;;;;;5079042;28;20593;-80
2022/05/21 13:08:20;;;;;;;3.38;1.30;;;20.60;78.30;;;;;;5074916;28;20600;-80
2022/05/21 13:11:00;;;;;;;3.83;1.20;;;20.70;78.40;;;;;;5077999;28;20226;-80
2022/05/21 13:13:35;;;;;;;5.75;0.90;;;20.80;76.60;;;;;;5075866;28;20226;-79
2022/05/21 13:16:04;;;;;;;4.20;1.50;;;21.00;76.90;;;;;;5072910;28;20231;-79
2022/05/21 13:18:47;;;;;;;3.50;1.05;;;21.00;76.60;;;;;;5054294;28;20356;-79
2022/05/21 13:21:24;;;;;;;3.28;1.08;;;21.10;76.90;;;;;;5057008;28;20326;-79
2022/05/21 13:24:05;;;;;;;2.53;1.20;;;21.10;76.70;;;;;;5053196;28;20319;-79
2022/05/21 13:26:35;;;;;;;6.13;1.02;;;21.10;75.80;;;;;;5069778;28;20221;-81
2022/05/21 13:29:20;;;;;;;7.53;1.30;;;21.10;75.50;;;;;;5079678;28;20233;-80
2022/05/21 13:31:48;;;;;;;6.32;1.10;;;21.10;75.30;;;;;;5076893;28;20222;-81
2022/05/21 13:34:18;;;;;;;4.90;1.48;;;21.10;74.50;;;;;;5077050;28;20223;-82